Time;durP1;ratioP1;P1;durP2;ratioP2;P2;SDS_P1;SDS_P2;PMS_P1;PMS_P2;Temp;Humidity;BMP_temperature;BMP_pressure;BME280_temperature;BME280_humidity;BME280_pressure;Samples;Min_cycle;Max_cycle;Signal;HPM_P1;HPM_P2
2023/11/06 00:02:28;;;;;;;0.50;0.50;;;24.20;53.50;;;;;;6174703;28;80468;-67
2023/11/06 00:05:28;;;;;;;2.13;1.00;;;24.10;53.40;;;;;;6175214;28;81272;-68
2023/11/06 00:08:29;;;;;;;1.13;0.70;;;24.10;53.40;;;;;;6176792;28;80613;-69
2023/11/06 00:11:29;;;;;;;0.60;0.60;;;24.10;53.40;;;;;;6176322;28;81855;-68
2023/11/06 00:14:30;;;;;;;1.20;0.93;;;24.10;53.40;;;;;;6176359;28;80426;-68
2023/11/06 00:17:31;;;;;;;1.48;0.60;;;24.10;53.30;;;;;;6174739;28;80987;-68
2023/11/06 00:20:32;;;;;;;1.52;1.05;;;24.10;53.30;;;;;;6175414;28;80561;-67
2023/11/06 00:23:33;;;;;;;1.05;0.70;;;24.10;53.30;;;;;;6177243;28;80947;-69
2023/11/06 00:26:33;;;;;;;1.33;0.68;;;24.10;53.20;;;;;;6177790;28;80573;-67
2023/11/06 00:29:34;;;;;;;0.47;0.47;;;24.10;53.20;;;;;;6179014;28;81115;-66
2023/11/06 00:32:34;;;;;;;1.15;0.70;;;24.10;53.20;;;;;;6176407;28;83407;-67
2023/11/06 00:35:35;;;;;;;0.95;0.60;;;24.10;53.30;;;;;;6177985;28;81010;-67
2023/11/06 00:38:36;;;;;;;0.80;0.60;;;24.10;53.20;;;;;;6167172;28;80932;-66
2023/11/06 00:41:37;;;;;;;1.17;0.70;;;24.10;53.30;;;;;;6178647;28;80584;-66
2023/11/06 00:44:37;;;;;;;0.70;0.70;;;24.10;53.30;;;;;;6176631;28;83436;-70
2023/11/06 00:47:38;;;;;;;1.02;0.63;;;24.20;53.30;;;;;;6179125;28;81038;-69
2023/11/06 00:50:39;;;;;;;2.58;0.70;;;24.10;53.30;;;;;;6175205;28;83142;-70
2023/11/06 00:53:39;;;;;;;0.57;0.57;;;24.10;53.00;;;;;;6178023;28;80641;-68
2023/11/06 00:56:40;;;;;;;0.65;0.60;;;24.10;53.40;;;;;;6179538;28;80996;-69
2023/11/06 00:59:40;;;;;;;1.08;0.50;;;24.10;53.20;;;;;;6179259;28;81443;-67
2023/11/06 01:02:41;;;;;;;1.05;0.57;;;24.10;53.20;;;;;;6177933;28;81903;-67
2023/11/06 01:05:42;;;;;;;0.57;0.50;;;24.10;53.30;;;;;;6176752;28;83333;-67
2023/11/06 01:08:43;;;;;;;0.57;0.50;;;24.10;53.30;;;;;;6178261;28;81555;-67
2023/11/06 01:11:43;;;;;;;2.22;0.60;;;24.10;53.20;;;;;;6177819;28;81295;-68
2023/11/06 01:14:44;;;;;;;0.30;0.30;;;24.10;53.20;;;;;;6177962;28;80836;-68
2023/11/06 01:17:44;;;;;;;0.45;0.45;;;24.10;53.20;;;;;;6178056;28;82285;-69
2023/11/06 01:20:45;;;;;;;0.40;0.40;;;24.10;53.00;;;;;;6177606;28;82890;-68
2023/11/06 01:23:45;;;;;;;1.00;0.60;;;24.00;53.00;;;;;;6176516;28;84186;-67
2023/11/06 01:26:46;;;;;;;0.85;0.60;;;24.10;53.10;;;;;;6176886;28;83744;-66
2023/11/06 01:29:46;;;;;;;0.73;0.50;;;24.10;53.10;;;;;;6175191;28;83023;-66
2023/11/06 01:32:47;;;;;;;0.65;0.45;;;24.10;53.10;;;;;;6176955;28;81517;-65
2023/11/06 01:35:47;;;;;;;0.50;0.50;;;24.10;53.20;;;;;;6174505;28;80385;-66
2023/11/06 01:38:48;;;;;;;0.77;0.68;;;24.10;53.10;;;;;;6184617;28;87440;-68
2023/11/06 01:41:49;;;;;;;0.85;0.55;;;24.10;53.10;;;;;;6175995;28;82575;-69
2023/11/06 01:44:49;;;;;;;0.55;0.40;;;24.00;53.00;;;;;;6177764;28;80675;-68
2023/11/06 01:47:50;;;;;;;1.77;0.50;;;24.00;52.90;;;;;;6177650;28;82000;-69
2023/11/06 01:50:51;;;;;;;1.05;0.50;;;24.10;53.10;;;;;;6174597;28;83362;-68
2023/11/06 01:53:51;;;;;;;1.08;0.60;;;24.00;53.00;;;;;;6176543;28;80848;-67
2023/11/06 01:56:53;;;;;;;0.40;0.40;;;24.10;53.10;;;;;;6195052;28;81590;-67
2023/11/06 01:59:54;;;;;;;0.70;0.50;;;24.10;52.80;;;;;;6200173;28;81553;-69
2023/11/06 02:02:54;;;;;;;0.60;0.60;;;24.00;52.90;;;;;;6190228;28;83173;-69
2023/11/06 02:05:55;;;;;;;0.57;0.57;;;24.10;52.90;;;;;;6185216;28;81617;-68
2023/11/06 02:08:57;;;;;;;0.52;0.40;;;24.10;52.80;;;;;;6191407;28;80951;-68
2023/11/06 02:11:58;;;;;;;0.75;0.40;;;24.10;52.70;;;;;;6187377;28;80400;-71
2023/11/06 02:14:59;;;;;;;0.40;0.40;;;24.10;52.70;;;;;;6197887;28;81820;-69
2023/11/06 02:17:59;;;;;;;0.77;0.40;;;24.10;53.30;;;;;;6187501;28;82953;-70
2023/11/06 02:21:00;;;;;;;1.20;0.63;;;24.10;52.70;;;;;;6175311;28;83372;-71
2023/11/06 02:24:00;;;;;;;0.70;0.70;;;24.10;52.70;;;;;;6194328;28;81237;-71
2023/11/06 02:27:01;;;;;;;4.22;0.45;;;24.10;52.50;;;;;;6170859;28;80778;-69
2023/11/06 02:30:02;;;;;;;0.40;0.40;;;24.10;52.50;;;;;;6168401;28;80933;-70
2023/11/06 02:33:03;;;;;;;0.88;0.43;;;24.10;52.50;;;;;;6171055;28;83718;-70
2023/11/06 02:36:03;;;;;;;0.60;0.30;;;24.10;52.60;;;;;;6173714;28;82968;-69
2023/11/06 02:39:04;;;;;;;0.40;0.38;;;24.10;52.60;;;;;;6176522;28;80261;-68
2023/11/06 02:42:05;;;;;;;1.00;0.52;;;24.10;52.50;;;;;;6177416;28;81535;-70
2023/11/06 02:45:06;;;;;;;0.60;0.40;;;24.10;52.50;;;;;;6176529;28;85486;-71
2023/11/06 02:48:08;;;;;;;0.30;0.30;;;24.10;52.40;;;;;;6175757;28;80123;-66
2023/11/06 02:51:08;;;;;;;0.30;0.30;;;24.10;52.40;;;;;;6173795;28;80668;-66
2023/11/06 02:54:09;;;;;;;0.50;0.40;;;24.10;52.40;;;;;;6176757;28;81809;-67
2023/11/06 02:57:09;;;;;;;0.52;0.52;;;24.10;52.30;;;;;;6176292;28;80519;-68
2023/11/06 03:00:11;;;;;;;0.60;0.57;;;24.10;52.40;;;;;;6176160;28;81724;-66
2023/11/06 03:03:12;;;;;;;0.40;0.40;;;24.10;52.30;;;;;;6176112;28;80655;-66
2023/11/06 03:06:12;;;;;;;0.30;0.30;;;24.10;52.20;;;;;;6175226;28;81713;-70
2023/11/06 03:09:13;;;;;;;0.28;0.28;;;24.10;52.20;;;;;;6158555;28;83653;-70
2023/11/06 03:12:13;;;;;;;0.88;0.45;;;24.10;52.10;;;;;;6175561;28;80704;-69
2023/11/06 03:15:14;;;;;;;1.20;0.73;;;24.10;52.10;;;;;;6177227;28;80784;-70
2023/11/06 03:18:15;;;;;;;1.60;0.45;;;24.00;52.10;;;;;;6176061;28;81201;-71
2023/11/06 03:21:15;;;;;;;0.50;0.40;;;24.10;52.00;;;;;;6175572;28;80549;-71
2023/11/06 03:24:16;;;;;;;0.38;0.38;;;24.00;51.90;;;;;;6175556;28;81650;-70
2023/11/06 03:27:16;;;;;;;0.52;0.40;;;24.00;51.90;;;;;;6175399;28;81241;-68
2023/11/06 03:30:17;;;;;;;0.30;0.30;;;24.00;51.90;;;;;;6174404;28;82210;-67
2023/11/06 03:33:17;;;;;;;1.27;0.57;;;24.00;51.80;;;;;;6175332;28;80508;-68
2023/11/06 03:36:18;;;;;;;1.10;0.45;;;24.00;51.80;;;;;;6175405;28;81395;-68
2023/11/06 03:39:18;;;;;;;0.93;0.30;;;24.00;51.80;;;;;;6176724;28;86259;-68
2023/11/06 03:42:19;;;;;;;2.08;0.30;;;24.00;51.70;;;;;;6176067;28;81090;-66
2023/11/06 03:45:19;;;;;;;0.47;0.40;;;24.00;51.70;;;;;;6178182;28;81406;-68
2023/11/06 03:48:20;;;;;;;0.30;0.30;;;24.00;51.70;;;;;;6179352;28;80381;-69
2023/11/06 03:51:21;;;;;;;0.40;0.40;;;24.00;52.40;;;;;;6180365;28;80947;-67
2023/11/06 03:54:21;;;;;;;0.30;0.30;;;24.00;51.80;;;;;;6180190;28;80946;-68
2023/11/06 03:57:22;;;;;;;0.75;0.40;;;24.00;51.90;;;;;;6178190;28;81036;-70
2023/11/06 04:00:22;;;;;;;0.50;0.40;;;24.00;51.80;;;;;;6176743;28;80585;-67
2023/11/06 04:03:23;;;;;;;0.77;0.40;;;24.10;52.00;;;;;;6179810;28;80388;-68
2023/11/06 04:06:23;;;;;;;0.38;0.38;;;24.10;51.90;;;;;;6178022;28;82295;-66
2023/11/06 04:09:24;;;;;;;1.45;0.38;;;24.00;51.90;;;;;;6179620;28;80546;-69
2023/11/06 04:12:24;;;;;;;0.30;0.30;;;24.10;51.90;;;;;;6144475;28;82207;-67
2023/11/06 04:15:25;;;;;;;0.60;0.40;;;24.10;51.90;;;;;;6053997;28;81944;-68
2023/11/06 04:18:25;;;;;;;0.30;0.30;;;24.10;51.80;;;;;;6051717;28;83163;-67
2023/11/06 04:21:27;;;;;;;0.98;0.30;;;24.10;51.90;;;;;;6054396;28;82197;-67
2023/11/06 04:24:28;;;;;;;0.57;0.35;;;24.10;51.90;;;;;;6056293;28;82041;-68
2023/11/06 04:27:28;;;;;;;0.30;0.30;;;24.10;51.80;;;;;;6055935;28;83917;-69
2023/11/06 04:30:29;;;;;;;0.40;0.40;;;24.10;51.60;;;;;;6059136;28;87605;-74
2023/11/06 04:33:29;;;;;;;0.50;0.40;;;24.10;51.40;;;;;;6058220;28;82151;-67
2023/11/06 04:36:30;;;;;;;0.57;0.30;;;24.10;51.50;;;;;;6058273;28;82795;-67
2023/11/06 04:39:30;;;;;;;0.43;0.40;;;24.10;51.20;;;;;;6057583;28;81558;-66
2023/11/06 04:42:31;;;;;;;0.77;0.50;;;24.20;51.20;;;;;;6057228;28;81020;-64
2023/11/06 04:45:32;;;;;;;0.70;0.60;;;24.20;51.20;;;;;;6057489;28;81363;-64
2023/11/06 04:48:32;;;;;;;1.35;0.35;;;24.10;51.20;;;;;;6059101;28;82297;-64
2023/11/06 04:51:33;;;;;;;0.90;0.40;;;24.10;51.50;;;;;;6059444;28;82021;-63
2023/11/06 04:54:33;;;;;;;0.43;0.32;;;24.20;51.70;;;;;;6059800;28;81941;-64
2023/11/06 04:57:34;;;;;;;3.60;0.50;;;24.20;51.20;;;;;;6055742;28;82027;-67
2023/11/06 05:00:34;;;;;;;1.20;0.40;;;24.20;51.10;;;;;;6046139;28;83368;-71
2023/11/06 05:03:35;;;;;;;1.13;0.50;;;24.20;50.60;;;;;;6057571;28;82048;-72
2023/11/06 05:06:35;;;;;;;0.38;0.38;;;24.20;50.60;;;;;;6056507;28;82405;-64
2023/11/06 05:09:36;;;;;;;2.50;0.90;;;24.30;51.50;;;;;;6059882;28;82103;-67
2023/11/06 05:12:37;;;;;;;1.92;1.30;;;24.30;51.70;;;;;;6059918;28;83135;-72
2023/11/06 05:15:38;;;;;;;1.63;0.93;;;24.30;51.80;;;;;;6055579;28;80808;-72
2023/11/06 05:18:38;;;;;;;1.02;0.80;;;24.40;52.00;;;;;;6056380;28;81389;-72
2023/11/06 05:21:39;;;;;;;2.20;0.50;;;24.40;51.60;;;;;;6055688;28;85050;-67
2023/11/06 05:24:43;;;;;;;1.15;0.55;;;24.40;51.50;;;;;;6058679;28;82040;-64
2023/11/06 05:27:43;;;;;;;1.05;0.60;;;24.40;51.30;;;;;;6056057;28;80343;-66
2023/11/06 05:30:44;;;;;;;2.35;0.75;;;24.30;51.80;;;;;;6056731;28;80618;-67
2023/11/06 05:33:45;;;;;;;1.88;0.80;;;24.30;51.80;;;;;;6058188;28;81550;-64
2023/11/06 05:36:45;;;;;;;3.72;0.82;;;24.30;52.30;;;;;;6061136;28;82021;-62
2023/11/06 05:39:46;;;;;;;12.30;1.00;;;24.40;52.50;;;;;;6060251;28;81963;-62
2023/11/06 05:42:46;;;;;;;45.95;2.45;;;24.40;52.20;;;;;;6059806;28;82135;-68
2023/11/06 05:45:47;;;;;;;5.18;1.38;;;24.40;53.20;;;;;;6054365;28;83472;-73
2023/11/06 05:48:47;;;;;;;1.75;0.65;;;24.20;51.30;;;;;;6054438;28;81434;-69
2023/11/06 05:51:49;;;;;;;2.08;0.80;;;23.20;42.90;;;;;;6056247;28;81904;-64
2023/11/06 05:54:49;;;;;;;1.45;0.50;;;22.30;42.60;;;;;;6053133;28;81399;-64
2023/11/06 05:57:50;;;;;;;1.25;0.55;;;21.80;42.50;;;;;;6052500;28;80268;-64
2023/11/06 06:00:51;;;;;;;0.70;0.63;;;22.00;43.10;;;;;;6056282;28;81634;-64
2023/11/06 06:03:52;;;;;;;2.45;0.70;;;21.80;42.00;;;;;;6057402;28;81477;-63
2023/11/06 06:06:54;;;;;;;1.30;0.60;;;21.50;42.50;;;;;;6023100;28;82631;-65
2023/11/06 06:09:55;;;;;;;1.67;0.70;;;21.40;42.00;;;;;;6033160;28;84720;-64
2023/11/06 06:12:55;;;;;;;1.45;0.65;;;21.30;43.10;;;;;;6028804;28;82591;-65
2023/11/06 06:15:56;;;;;;;1.85;0.88;;;21.30;42.90;;;;;;6047493;28;81900;-67
2023/11/06 06:18:56;;;;;;;1.70;0.63;;;21.70;42.80;;;;;;6051367;28;82213;-68
2023/11/06 06:21:57;;;;;;;1.83;0.98;;;21.80;42.40;;;;;;6034680;28;82243;-68
2023/11/06 06:24:58;;;;;;;2.95;0.93;;;21.70;42.40;;;;;;6049674;28;82165;-68
2023/11/06 06:27:59;;;;;;;1.92;0.77;;;21.50;41.90;;;;;;6048429;28;80816;-68
2023/11/06 06:30:59;;;;;;;0.82;0.50;;;21.40;42.10;;;;;;6049415;28;80485;-75
2023/11/06 06:34:02;;;;;;;1.13;0.80;;;21.50;42.10;;;;;;6052081;28;81895;-73
2023/11/06 06:37:02;;;;;;;1.42;0.55;;;21.80;42.70;;;;;;6051508;28;82538;-71
2023/11/06 06:40:06;;;;;;;1.10;0.60;;;22.00;42.20;;;;;;6050987;28;82214;-73
2023/11/06 06:43:07;;;;;;;4.45;1.00;;;22.30;42.50;;;;;;6048502;28;82098;-72
2023/11/06 06:46:08;;;;;;;1.00;0.60;;;22.50;43.60;;;;;;6054054;28;82151;-68
2023/11/06 06:49:08;;;;;;;1.00;0.50;;;22.60;43.90;;;;;;6046130;28;82190;-63
2023/11/06 06:52:09;;;;;;;2.67;0.80;;;22.70;43.60;;;;;;6033582;28;83514;-63
2023/11/06 06:55:09;;;;;;;1.80;0.60;;;22.80;43.50;;;;;;6046825;28;82458;-63
2023/11/06 06:58:10;;;;;;;1.00;0.60;;;22.80;43.10;;;;;;6050832;28;83377;-62
2023/11/06 07:01:10;;;;;;;1.70;0.90;;;22.90;43.00;;;;;;6053093;28;82437;-62
2023/11/06 07:04:11;;;;;;;2.28;0.50;;;23.00;42.80;;;;;;6053637;28;82337;-62
2023/11/06 07:07:11;;;;;;;2.35;0.65;;;23.00;42.80;;;;;;6058010;28;81982;-72
2023/11/06 07:10:12;;;;;;;1.02;0.55;;;23.10;42.60;;;;;;6057510;28;82167;-71
2023/11/06 07:13:12;;;;;;;2.90;0.77;;;23.10;42.40;;;;;;6059091;28;82318;-71
2023/11/06 07:16:13;;;;;;;1.13;0.70;;;23.20;42.30;;;;;;6056567;28;82692;-73
2023/11/06 07:19:13;;;;;;;2.45;0.70;;;23.20;42.60;;;;;;6064574;28;82231;-72
2023/11/06 07:22:15;;;;;;;3.03;0.95;;;23.20;42.70;;;;;;6060123;28;81985;-71
2023/11/06 07:25:16;;;;;;;1.25;0.68;;;23.20;43.20;;;;;;6057809;28;81415;-72
2023/11/06 07:28:17;;;;;;;0.77;0.60;;;23.20;43.10;;;;;;6059923;28;82173;-70
2023/11/06 07:31:17;;;;;;;1.80;0.75;;;23.20;43.20;;;;;;6057865;28;82229;-68
2023/11/06 07:34:18;;;;;;;3.15;0.68;;;23.20;43.40;;;;;;6058967;28;81571;-69
2023/11/06 07:37:18;;;;;;;1.00;0.47;;;23.20;43.70;;;;;;6053250;28;85984;-69
2023/11/06 07:40:19;;;;;;;1.90;0.70;;;23.20;43.70;;;;;;6059006;28;82454;-71
2023/11/06 07:43:19;;;;;;;0.63;0.40;;;23.20;43.70;;;;;;6059338;28;82762;-67
2023/11/06 07:46:20;;;;;;;0.75;0.50;;;23.20;43.90;;;;;;6058600;28;82233;-67
2023/11/06 07:49:20;;;;;;;2.28;0.80;;;23.20;43.80;;;;;;6059515;28;81860;-68
2023/11/06 07:52:21;;;;;;;1.65;0.95;;;23.20;44.00;;;;;;6056456;28;82401;-69
2023/11/06 07:55:21;;;;;;;0.90;0.50;;;23.30;43.70;;;;;;6059071;28;82034;-68
2023/11/06 07:58:22;;;;;;;3.60;0.75;;;23.40;43.60;;;;;;6059052;28;81994;-68
2023/11/06 08:01:22;;;;;;;2.15;0.50;;;23.60;43.30;;;;;;6057867;28;81790;-71
2023/11/06 08:04:23;;;;;;;2.55;0.85;;;23.70;43.20;;;;;;6059505;28;82234;-69
2023/11/06 08:07:24;;;;;;;1.27;0.60;;;23.70;42.80;;;;;;6061327;28;83166;-72
2023/11/06 08:10:27;;;;;;;1.77;0.80;;;23.80;42.60;;;;;;6050397;28;83207;-72
2023/11/06 08:13:28;;;;;;;1.40;0.70;;;23.90;42.40;;;;;;6044896;28;85070;-69
2023/11/06 08:16:28;;;;;;;0.43;0.43;;;24.00;42.70;;;;;;6049350;28;81985;-70
2023/11/06 08:19:29;;;;;;;0.98;0.50;;;24.10;42.60;;;;;;6051135;28;80588;-70
2023/11/06 08:22:31;;;;;;;1.77;0.85;;;24.10;42.40;;;;;;6052674;28;81379;-71
2023/11/06 08:25:34;;;;;;;3.15;0.70;;;24.10;42.30;;;;;;6054153;28;82549;-69
2023/11/06 08:28:34;;;;;;;1.65;0.80;;;24.00;42.60;;;;;;6053747;28;81751;-70
2023/11/06 08:31:35;;;;;;;1.75;0.75;;;24.00;42.80;;;;;;6047711;28;86369;-70
2023/11/06 08:34:36;;;;;;;2.17;0.88;;;24.00;43.10;;;;;;6051678;28;84555;-70
2023/11/06 08:37:36;;;;;;;1.63;1.10;;;23.90;43.20;;;;;;6055326;28;82428;-70
2023/11/06 08:40:37;;;;;;;2.47;0.98;;;23.90;43.50;;;;;;6042329;28;82038;-68
2023/11/06 08:43:37;;;;;;;1.27;0.70;;;23.90;43.20;;;;;;6057697;28;82172;-69
2023/11/06 08:46:40;;;;;;;1.30;0.57;;;23.80;43.20;;;;;;6052319;28;82302;-70
2023/11/06 08:49:40;;;;;;;2.75;0.90;;;23.80;43.20;;;;;;6056072;28;81907;-70
2023/11/06 08:52:41;;;;;;;4.30;0.98;;;23.70;43.40;;;;;;6056757;28;81065;-69
2023/11/06 08:55:41;;;;;;;1.52;0.80;;;23.70;43.40;;;;;;6057994;28;82003;-70
2023/11/06 08:58:42;;;;;;;3.10;0.77;;;23.70;43.50;;;;;;6057441;28;81967;-68
2023/11/06 09:01:42;;;;;;;1.48;0.85;;;23.60;43.50;;;;;;6057194;28;82282;-69
2023/11/06 09:04:45;;;;;;;1.45;0.70;;;23.60;43.70;;;;;;6051838;28;82216;-72
2023/11/06 09:07:47;;;;;;;1.67;1.00;;;23.60;43.80;;;;;;6053236;28;80540;-74
2023/11/06 09:10:48;;;;;;;3.13;0.50;;;23.60;43.50;;;;;;6055942;28;80887;-74
2023/11/06 09:13:49;;;;;;;2.72;1.20;;;23.70;43.90;;;;;;6053398;28;82102;-72
2023/11/06 09:16:49;;;;;;;2.13;0.98;;;23.60;43.60;;;;;;6053093;28;84185;-71
2023/11/06 09:19:50;;;;;;;1.45;0.80;;;23.60;43.30;;;;;;6050140;28;81358;-72
2023/11/06 09:22:50;;;;;;;1.17;0.60;;;23.60;43.90;;;;;;6058603;28;81916;-69
2023/11/06 09:25:51;;;;;;;3.97;0.73;;;23.60;43.90;;;;;;6054537;28;81924;-70
2023/11/06 09:28:53;;;;;;;2.35;0.90;;;23.60;43.50;;;;;;6054464;28;82437;-67
2023/11/06 09:31:54;;;;;;;4.43;1.02;;;23.60;43.40;;;;;;6057975;28;82377;-69
2023/11/06 09:34:55;;;;;;;1.67;0.70;;;23.60;42.80;;;;;;6132854;28;81172;-72
2023/11/06 09:37:55;;;;;;;3.72;0.77;;;23.60;42.70;;;;;;6177292;28;80978;-71
2023/11/06 09:40:56;;;;;;;1.15;0.52;;;23.70;42.50;;;;;;6177172;28;80523;-71
2023/11/06 09:43:57;;;;;;;1.95;1.00;;;23.70;42.40;;;;;;6176577;28;81702;-71
2023/11/06 09:46:57;;;;;;;0.95;0.65;;;23.80;42.00;;;;;;6177100;28;80272;-71
2023/11/06 09:49:58;;;;;;;1.80;0.77;;;23.80;41.80;;;;;;6177530;28;80384;-69
2023/11/06 09:52:59;;;;;;;2.47;0.80;;;23.90;41.80;;;;;;6176146;28;80368;-69
2023/11/06 09:55:59;;;;;;;3.70;0.90;;;24.00;41.70;;;;;;6175732;28;85837;-68
2023/11/06 09:59:00;;;;;;;0.82;0.57;;;24.00;41.20;;;;;;6166899;28;80639;-66
2023/11/06 10:02:00;;;;;;;1.67;0.90;;;24.20;41.10;;;;;;6176588;28;81393;-68
2023/11/06 10:05:03;;;;;;;1.13;0.55;;;24.40;41.10;;;;;;6175271;28;82338;-69
2023/11/06 10:08:04;;;;;;;3.15;1.20;;;24.50;40.90;;;;;;6176733;28;80974;-68
2023/11/06 10:11:05;;;;;;;4.60;0.73;;;24.60;40.60;;;;;;6178133;28;81035;-68
2023/11/06 10:14:06;;;;;;;3.42;0.77;;;24.80;41.00;;;;;;6177248;28;80682;-67
2023/11/06 10:17:06;;;;;;;1.52;0.88;;;24.90;41.40;;;;;;6174233;28;80416;-67
2023/11/06 10:20:16;;;;;;;2.38;0.70;;;25.10;40.90;;;;;;6170110;28;81886;-68
2023/11/06 10:23:17;;;;;;;1.65;0.70;;;25.20;40.70;;;;;;6173395;28;80324;-68
2023/11/06 10:26:17;;;;;;;1.00;0.60;;;25.30;40.60;;;;;;6176125;28;82573;-68
2023/11/06 10:29:18;;;;;;;1.20;0.80;;;25.30;40.50;;;;;;6176158;28;80523;-69
2023/11/06 10:32:19;;;;;;;5.70;0.70;;;25.50;40.40;;;;;;6176832;28;80183;-67
2023/11/06 10:35:19;;;;;;;1.83;0.88;;;25.60;40.20;;;;;;6176359;28;81074;-69
2023/11/06 10:38:20;;;;;;;2.45;0.70;;;25.70;40.20;;;;;;6176174;28;80925;-71
2023/11/06 10:41:24;;;;;;;2.00;0.70;;;25.70;40.10;;;;;;6177594;28;81375;-70
2023/11/06 10:44:25;;;;;;;3.72;0.80;;;25.70;40.00;;;;;;6174337;28;80658;-70
2023/11/06 10:47:25;;;;;;;3.15;1.25;;;25.80;39.60;;;;;;6176788;28;80443;-71
2023/11/06 10:50:26;;;;;;;1.13;0.70;;;25.90;39.60;;;;;;6175975;28;80911;-70
2023/11/06 10:53:26;;;;;;;1.98;0.82;;;25.90;39.50;;;;;;6176679;28;80336;-69
2023/11/06 10:56:27;;;;;;;2.95;0.70;;;25.90;39.30;;;;;;6176098;28;80738;-69
2023/11/06 10:59:27;;;;;;;3.22;0.80;;;25.90;39.00;;;;;;6173681;28;80384;-71
2023/11/06 11:02:28;;;;;;;2.63;1.55;;;26.00;38.90;;;;;;6055885;28;81413;-71
2023/11/06 11:05:29;;;;;;;5.28;1.92;;;26.00;38.70;;;;;;6089571;28;81874;-72
2023/11/06 11:08:29;;;;;;;3.92;1.00;;;26.10;38.90;;;;;;6172180;28;82207;-77
2023/11/06 11:11:30;;;;;;;1.30;0.70;;;26.10;39.10;;;;;;6176085;28;80594;-74
2023/11/06 11:14:30;;;;;;;1.45;0.90;;;26.20;39.00;;;;;;6177853;28;80428;-73
2023/11/06 11:17:31;;;;;;;5.43;1.05;;;26.10;39.00;;;;;;6176231;28;80633;-71
2023/11/06 11:20:32;;;;;;;2.67;0.75;;;26.00;39.10;;;;;;6175425;28;80726;-74
2023/11/06 11:23:32;;;;;;;2.78;1.15;;;25.90;39.30;;;;;;6174476;28;81246;-76
2023/11/06 11:26:33;;;;;;;1.73;1.05;;;25.70;39.70;;;;;;6175885;28;80288;-69
2023/11/06 11:29:33;;;;;;;9.40;1.08;;;25.70;39.80;;;;;;6175273;28;80500;-71
2023/11/06 11:32:36;;;;;;;2.35;1.20;;;25.60;39.80;;;;;;6172940;28;80799;-71
2023/11/06 11:35:36;;;;;;;2.00;0.90;;;25.50;39.70;;;;;;6174800;28;80411;-69
2023/11/06 11:38:37;;;;;;;4.32;1.05;;;25.50;39.80;;;;;;6174623;28;80378;-68
2023/11/06 11:41:39;;;;;;;3.08;1.38;;;25.50;39.70;;;;;;6174947;28;80379;-73
2023/11/06 11:44:39;;;;;;;0.63;0.60;;;25.50;40.00;;;;;;6175336;28;80749;-68
2023/11/06 11:47:40;;;;;;;1.73;0.63;;;25.50;39.80;;;;;;6171588;28;80590;-69
2023/11/06 11:50:41;;;;;;;1.25;0.70;;;25.40;39.60;;;;;;6171027;28;80852;-67
2023/11/06 11:53:41;;;;;;;1.58;0.80;;;25.40;39.70;;;;;;6175814;28;80638;-68
2023/11/06 11:56:42;;;;;;;1.95;0.50;;;25.30;39.80;;;;;;6175996;28;81363;-69
2023/11/06 11:59:42;;;;;;;3.50;0.82;;;25.30;39.90;;;;;;6175546;28;81069;-68
2023/11/06 12:02:43;;;;;;;5.68;0.80;;;25.40;40.10;;;;;;6176764;28;80371;-69
2023/11/06 12:05:46;;;;;;;2.22;0.80;;;25.30;40.10;;;;;;6181234;28;80730;-70
2023/11/06 12:08:47;;;;;;;1.00;0.50;;;25.30;40.40;;;;;;6180449;28;81387;-69
2023/11/06 12:11:47;;;;;;;2.30;0.88;;;25.10;40.20;;;;;;6180611;28;81016;-70
2023/11/06 12:14:48;;;;;;;4.78;1.10;;;25.10;40.10;;;;;;6179811;28;80310;-68
2023/11/06 12:17:48;;;;;;;2.47;0.73;;;25.00;40.10;;;;;;6179774;28;80236;-68
2023/11/06 12:20:49;;;;;;;4.00;0.82;;;24.90;40.10;;;;;;6179753;28;81251;-67
2023/11/06 12:23:49;;;;;;;1.40;0.73;;;24.90;40.20;;;;;;6179240;28;81890;-68
2023/11/06 12:26:50;;;;;;;2.75;0.70;;;24.80;40.20;;;;;;6177696;28;81329;-67
2023/11/06 12:29:51;;;;;;;3.58;0.80;;;24.70;40.50;;;;;;6178228;28;91826;-68
2023/11/06 12:32:52;;;;;;;3.70;0.90;;;24.60;40.70;;;;;;6178050;28;82445;-69
2023/11/06 12:35:53;;;;;;;1.95;0.90;;;24.50;40.90;;;;;;6178481;28;80387;-69
2023/11/06 12:38:53;;;;;;;2.60;0.77;;;24.40;40.90;;;;;;6180045;28;80812;-64
2023/11/06 12:41:57;;;;;;;8.43;1.17;;;24.50;40.00;;;;;;6179556;28;81199;-64
2023/11/06 12:44:57;;;;;;;2.78;1.23;;;24.60;39.90;;;;;;6180204;28;80555;-63
2023/11/06 12:47:58;;;;;;;2.20;1.15;;;24.60;40.00;;;;;;6178960;28;80834;-63
2023/11/06 12:51:04;;;;;;;1.20;0.80;;;24.60;40.00;;;;;;6180084;28;80488;-63
2023/11/06 12:54:04;;;;;;;3.10;0.90;;;24.50;40.00;;;;;;6179198;28;80541;-62
2023/11/06 12:57:08;;;;;;;1.98;1.08;;;24.50;40.60;;;;;;6178810;28;81250;-63
2023/11/06 13:00:23;;;;;;;2.22;1.00;;;24.40;40.80;;;;;;6179795;28;80711;-64
2023/11/06 13:03:27;;;;;;;1.70;1.10;;;24.30;41.20;;;;;;6169380;28;80250;-64
2023/11/06 13:06:29;;;;;;;1.70;1.02;;;24.30;41.20;;;;;;6167803;28;80565;-63
2023/11/06 13:09:29;;;;;;;1.98;0.90;;;24.30;41.30;;;;;;6179053;28;80364;-62
2023/11/06 13:12:30;;;;;;;3.30;0.80;;;24.30;41.20;;;;;;6177286;28;81224;-69
2023/11/06 13:15:30;;;;;;;2.92;0.80;;;24.40;40.60;;;;;;6176807;28;81149;-63
2023/11/06 13:18:31;;;;;;;3.42;1.00;;;24.60;40.40;;;;;;6177426;28;80601;-64
2023/11/06 13:21:34;;;;;;;5.47;1.48;;;24.70;40.20;;;;;;6177425;28;80602;-62
2023/11/06 13:24:34;;;;;;;2.17;1.08;;;24.70;40.20;;;;;;6174288;28;81686;-61
2023/11/06 13:27:35;;;;;;;3.85;1.13;;;24.60;40.30;;;;;;6171340;28;83710;-61
2023/11/06 13:30:36;;;;;;;1.92;0.88;;;24.60;40.30;;;;;;6175242;28;81146;-61
2023/11/06 13:33:36;;;;;;;4.97;2.03;;;24.70;40.30;;;;;;6176724;28;81048;-61
2023/11/06 13:36:42;;;;;;;3.97;1.38;;;24.70;40.10;;;;;;6175970;28;80932;-63
2023/11/06 13:39:43;;;;;;;2.83;1.20;;;24.70;40.10;;;;;;6165788;28;86181;-63
2023/11/06 13:42:43;;;;;;;2.45;1.25;;;24.80;40.00;;;;;;6177675;28;84901;-61
2023/11/06 13:45:44;;;;;;;2.63;1.20;;;24.70;40.20;;;;;;6176961;28;80171;-63
2023/11/06 13:48:48;;;;;;;3.97;1.30;;;24.60;40.50;;;;;;6188808;28;80274;-63
2023/11/06 13:51:48;;;;;;;2.65;1.38;;;24.60;40.60;;;;;;6179057;28;80312;-61
2023/11/06 13:54:49;;;;;;;5.40;1.73;;;24.40;40.70;;;;;;6177973;28;80462;-62
2023/11/06 13:57:50;;;;;;;4.88;1.38;;;24.30;40.70;;;;;;6175279;28;80727;-62
2023/11/06 14:01:01;;;;;;;4.75;1.20;;;24.30;40.80;;;;;;6176110;28;81319;-63
2023/11/06 14:04:03;;;;;;;3.88;1.63;;;24.20;40.80;;;;;;6173540;28;80477;-62
2023/11/06 14:07:08;;;;;;;2.35;1.17;;;24.20;40.80;;;;;;6175846;28;83446;-63
2023/11/06 14:10:24;;;;;;;2.80;1.10;;;24.10;40.90;;;;;;6176183;28;80615;-63
2023/11/06 14:13:26;;;;;;;3.15;1.60;;;24.10;40.90;;;;;;6176931;28;80474;-63
2023/11/06 14:16:27;;;;;;;2.47;1.40;;;24.10;41.00;;;;;;6177435;28;81859;-64
2023/11/06 14:19:29;;;;;;;3.85;1.50;;;24.00;41.00;;;;;;6163404;28;80699;-69
2023/11/06 14:22:29;;;;;;;3.50;1.40;;;24.00;41.10;;;;;;6176040;28;80780;-67
2023/11/06 14:25:30;;;;;;;1.95;1.20;;;24.00;41.70;;;;;;6173673;28;80578;-67
2023/11/06 14:28:31;;;;;;;2.33;1.42;;;24.00;41.80;;;;;;6174003;28;81255;-66
2023/11/06 14:31:32;;;;;;;4.15;1.42;;;24.00;41.90;;;;;;6173381;28;80329;-67
2023/11/06 14:34:33;;;;;;;2.60;1.30;;;24.00;41.80;;;;;;6175851;28;80823;-66
2023/11/06 14:37:36;;;;;;;2.42;1.25;;;23.90;41.90;;;;;;6175632;28;82520;-65
2023/11/06 14:40:37;;;;;;;2.13;1.30;;;23.90;41.90;;;;;;6174323;28;80421;-65
2023/11/06 14:43:37;;;;;;;7.65;1.48;;;23.90;42.00;;;;;;6176093;28;81819;-66
2023/11/06 14:46:39;;;;;;;3.08;1.55;;;23.80;42.00;;;;;;6155590;28;82855;-67
2023/11/06 14:49:40;;;;;;;2.53;1.40;;;23.80;42.20;;;;;;6171501;28;80799;-69
2023/11/06 14:52:41;;;;;;;15.80;1.65;;;23.90;42.50;;;;;;6166593;28;83354;-66
2023/11/06 14:55:41;;;;;;;8.15;1.38;;;23.90;43.00;;;;;;6169925;28;81478;-66
2023/11/06 14:58:42;;;;;;;3.83;1.67;;;23.90;43.00;;;;;;6172223;28;80549;-65
2023/11/06 15:01:42;;;;;;;5.22;1.33;;;23.90;43.00;;;;;;6173095;28;82565;-66
2023/11/06 15:04:44;;;;;;;6.43;1.77;;;23.90;43.20;;;;;;6165742;28;80388;-68
2023/11/06 15:07:49;;;;;;;4.78;1.80;;;23.90;43.40;;;;;;6151419;28;82144;-68
2023/11/06 15:10:50;;;;;;;6.43;1.48;;;23.90;43.30;;;;;;6169582;28;84267;-66
2023/11/06 15:13:50;;;;;;;7.45;1.70;;;23.80;43.90;;;;;;6168193;28;81213;-69
2023/11/06 15:16:51;;;;;;;3.33;1.38;;;23.90;43.50;;;;;;6170525;28;80318;-69
2023/11/06 15:19:51;;;;;;;14.88;2.75;;;23.80;44.30;;;;;;6167975;28;80385;-66
2023/11/06 15:22:55;;;;;;;7.53;1.92;;;23.90;44.60;;;;;;6170931;28;80276;-68
2023/11/06 15:25:55;;;;;;;8.38;1.92;;;23.90;44.70;;;;;;6175426;28;80552;-68
2023/11/06 15:28:56;;;;;;;3.33;1.23;;;23.90;44.60;;;;;;6175516;28;80769;-64
2023/11/06 15:31:56;;;;;;;5.68;1.60;;;23.90;44.90;;;;;;6172535;28;83499;-66
2023/11/06 15:34:57;;;;;;;5.13;1.58;;;23.90;45.40;;;;;;6173904;28;80090;-66
2023/11/06 15:37:57;;;;;;;3.72;1.30;;;23.90;45.20;;;;;;6173038;28;80766;-68
2023/11/06 15:40:58;;;;;;;4.13;1.40;;;24.00;45.20;;;;;;6178124;28;81143;-63